sensor_id;sensor_type;location;lat;lon;timestamp;P1;durP1;ratioP1;P2;durP2;ratioP2
76417;SDS011;65250;47.602;19.002;2023-06-19T00:00:28;5.88;;;4.75;;
76417;SDS011;65250;47.602;19.002;2023-06-19T00:02:57;6.60;;;4.85;;
76417;SDS011;65250;47.602;19.002;2023-06-19T00:05:24;6.43;;;4.90;;
76417;SDS011;65250;47.602;19.002;2023-06-19T00:07:51;6.22;;;5.45;;
76417;SDS011;65250;47.602;19.002;2023-06-19T00:10:18;5.80;;;5.03;;
76417;SDS011;65250;47.602;19.002;2023-06-19T00:12:45;7.53;;;4.85;;
76417;SDS011;65250;47.602;19.002;2023-06-19T00:15:12;5.95;;;4.82;;
76417;SDS011;65250;47.602;19.002;2023-06-19T00:17:39;7.43;;;5.32;;
76417;SDS011;65250;47.602;19.002;2023-06-19T00:20:06;6.55;;;5.00;;
76417;SDS011;65250;47.602;19.002;2023-06-19T00:22:33;8.13;;;5.43;;
76417;SDS011;65250;47.602;19.002;2023-06-19T00:25:00;5.85;;;5.13;;
76417;SDS011;65250;47.602;19.002;2023-06-19T00:27:27;7.10;;;5.55;;
76417;SDS011;65250;47.602;19.002;2023-06-19T00:29:54;7.93;;;5.53;;
76417;SDS011;65250;47.602;19.002;2023-06-19T00:32:21;6.22;;;5.30;;
76417;SDS011;65250;47.602;19.002;2023-06-19T00:34:48;7.03;;;5.57;;
76417;SDS011;65250;47.602;19.002;2023-06-19T00:37:14;8.20;;;5.65;;
76417;SDS011;65250;47.602;19.002;2023-06-19T00:39:41;6.90;;;5.70;;
76417;SDS011;65250;47.602;19.002;2023-06-19T00:42:10;8.20;;;5.90;;
76417;SDS011;65250;47.602;19.002;2023-06-19T00:44:37;6.50;;;5.20;;
76417;SDS011;65250;47.602;19.002;2023-06-19T00:47:04;7.20;;;5.47;;
76417;SDS011;65250;47.602;19.002;2023-06-19T00:49:31;6.88;;;5.63;;
76417;SDS011;65250;47.602;19.002;2023-06-19T00:51:58;7.55;;;5.03;;
76417;SDS011;65250;47.602;19.002;2023-06-19T00:54:25;8.75;;;5.28;;
76417;SDS011;65250;47.602;19.002;2023-06-19T00:56:52;8.35;;;5.30;;
76417;SDS011;65250;47.602;19.002;2023-06-19T00:59:20;7.13;;;5.70;;
76417;SDS011;65250;47.602;19.002;2023-06-19T01:01:47;6.90;;;5.40;;
76417;SDS011;65250;47.602;19.002;2023-06-19T01:04:14;7.18;;;5.15;;
76417;SDS011;65250;47.602;19.002;2023-06-19T01:06:57;6.90;;;5.68;;
76417;SDS011;65250;47.602;19.002;2023-06-19T01:09:29;5.53;;;4.97;;
76417;SDS011;65250;47.602;19.002;2023-06-19T01:12:04;5.97;;;4.80;;
76417;SDS011;65250;47.602;19.002;2023-06-19T01:14:39;6.40;;;5.00;;
76417;SDS011;65250;47.602;19.002;2023-06-19T01:17:11;8.15;;;5.05;;
76417;SDS011;65250;47.602;19.002;2023-06-19T01:19:38;6.13;;;5.20;;
76417;SDS011;65250;47.602;19.002;2023-06-19T01:22:05;6.03;;;4.97;;
76417;SDS011;65250;47.602;19.002;2023-06-19T01:24:32;8.07;;;5.63;;
76417;SDS011;65250;47.602;19.002;2023-06-19T01:26:59;6.85;;;5.15;;
76417;SDS011;65250;47.602;19.002;2023-06-19T01:29:26;6.18;;;5.15;;
76417;SDS011;65250;47.602;19.002;2023-06-19T01:34:34;6.47;;;5.38;;
76417;SDS011;65250;47.602;19.002;2023-06-19T01:37:06;6.83;;;5.00;;
76417;SDS011;65250;47.602;19.002;2023-06-19T01:39:33;6.05;;;4.90;;
76417;SDS011;65250;47.602;19.002;2023-06-19T01:42:02;6.65;;;4.93;;
76417;SDS011;65250;47.602;19.002;2023-06-19T01:44:29;7.70;;;5.40;;
76417;SDS011;65250;47.602;19.002;2023-06-19T01:46:56;7.28;;;5.65;;
76417;SDS011;65250;47.602;19.002;2023-06-19T01:49:23;6.47;;;5.10;;
76417;SDS011;65250;47.602;19.002;2023-06-19T01:51:50;6.15;;;5.22;;
76417;SDS011;65250;47.602;19.002;2023-06-19T01:54:17;7.07;;;5.20;;
76417;SDS011;65250;47.602;19.002;2023-06-19T01:56:44;5.43;;;4.63;;
76417;SDS011;65250;47.602;19.002;2023-06-19T01:59:10;7.70;;;5.05;;
76417;SDS011;65250;47.602;19.002;2023-06-19T02:01:37;6.63;;;5.03;;
76417;SDS011;65250;47.602;19.002;2023-06-19T02:04:04;5.60;;;4.72;;
76417;SDS011;65250;47.602;19.002;2023-06-19T02:06:31;7.80;;;5.20;;
76417;SDS011;65250;47.602;19.002;2023-06-19T02:08:58;10.52;;;5.00;;
76417;SDS011;65250;47.602;19.002;2023-06-19T02:11:25;7.78;;;5.20;;
76417;SDS011;65250;47.602;19.002;2023-06-19T02:13:51;6.13;;;5.10;;
76417;SDS011;65250;47.602;19.002;2023-06-19T02:16:18;7.85;;;4.90;;
76417;SDS011;65250;47.602;19.002;2023-06-19T02:18:45;7.13;;;5.05;;
76417;SDS011;65250;47.602;19.002;2023-06-19T02:21:12;6.55;;;5.50;;
76417;SDS011;65250;47.602;19.002;2023-06-19T02:23:39;6.47;;;5.43;;
76417;SDS011;65250;47.602;19.002;2023-06-19T02:26:05;8.53;;;5.60;;
76417;SDS011;65250;47.602;19.002;2023-06-19T02:28:32;7.75;;;5.88;;
76417;SDS011;65250;47.602;19.002;2023-06-19T02:30:59;6.55;;;5.43;;
76417;SDS011;65250;47.602;19.002;2023-06-19T02:33:26;6.88;;;5.03;;
76417;SDS011;65250;47.602;19.002;2023-06-19T02:35:53;8.00;;;5.32;;
76417;SDS011;65250;47.602;19.002;2023-06-19T02:38:26;6.60;;;5.37;;
76417;SDS011;65250;47.602;19.002;2023-06-19T02:40:53;6.95;;;5.22;;
76417;SDS011;65250;47.602;19.002;2023-06-19T02:43:20;9.88;;;5.55;;
76417;SDS011;65250;47.602;19.002;2023-06-19T02:45:47;6.32;;;5.10;;
76417;SDS011;65250;47.602;19.002;2023-06-19T02:48:13;6.32;;;5.55;;
76417;SDS011;65250;47.602;19.002;2023-06-19T02:50:40;7.87;;;5.53;;
76417;SDS011;65250;47.602;19.002;2023-06-19T02:53:07;8.20;;;5.53;;
76417;SDS011;65250;47.602;19.002;2023-06-19T02:55:34;7.60;;;5.40;;
76417;SDS011;65250;47.602;19.002;2023-06-19T02:58:01;7.18;;;5.13;;
76417;SDS011;65250;47.602;19.002;2023-06-19T03:00:28;9.45;;;5.80;;
76417;SDS011;65250;47.602;19.002;2023-06-19T03:02:55;8.67;;;5.63;;
76417;SDS011;65250;47.602;19.002;2023-06-19T03:05:22;7.18;;;5.72;;
76417;SDS011;65250;47.602;19.002;2023-06-19T03:07:49;6.50;;;5.35;;
76417;SDS011;65250;47.602;19.002;2023-06-19T03:10:15;8.48;;;5.82;;
76417;SDS011;65250;47.602;19.002;2023-06-19T03:12:43;7.53;;;5.45;;
76417;SDS011;65250;47.602;19.002;2023-06-19T03:15:09;7.50;;;5.57;;
76417;SDS011;65250;47.602;19.002;2023-06-19T03:17:37;6.68;;;5.47;;
76417;SDS011;65250;47.602;19.002;2023-06-19T03:20:04;6.15;;;5.28;;
76417;SDS011;65250;47.602;19.002;2023-06-19T03:22:32;7.72;;;5.78;;
76417;SDS011;65250;47.602;19.002;2023-06-19T03:24:59;6.97;;;5.45;;
76417;SDS011;65250;47.602;19.002;2023-06-19T03:27:25;8.03;;;5.57;;
76417;SDS011;65250;47.602;19.002;2023-06-19T03:29:53;9.15;;;6.20;;
76417;SDS011;65250;47.602;19.002;2023-06-19T03:32:20;7.15;;;5.60;;
76417;SDS011;65250;47.602;19.002;2023-06-19T03:34:47;6.80;;;5.35;;
76417;SDS011;65250;47.602;19.002;2023-06-19T03:37:14;8.05;;;5.57;;
76417;SDS011;65250;47.602;19.002;2023-06-19T03:39:42;8.53;;;6.13;;
76417;SDS011;65250;47.602;19.002;2023-06-19T03:42:08;10.95;;;5.85;;
76417;SDS011;65250;47.602;19.002;2023-06-19T03:44:35;7.53;;;5.75;;
76417;SDS011;65250;47.602;19.002;2023-06-19T03:47:02;8.32;;;5.80;;
76417;SDS011;65250;47.602;19.002;2023-06-19T03:49:29;9.80;;;6.43;;
76417;SDS011;65250;47.602;19.002;2023-06-19T03:51:56;6.40;;;5.30;;
76417;SDS011;65250;47.602;19.002;2023-06-19T03:54:22;6.32;;;5.60;;
76417;SDS011;65250;47.602;19.002;2023-06-19T03:56:49;9.52;;;5.40;;
76417;SDS011;65250;47.602;19.002;2023-06-19T03:59:16;8.00;;;5.60;;
76417;SDS011;65250;47.602;19.002;2023-06-19T04:01:43;7.82;;;5.38;;
76417;SDS011;65250;47.602;19.002;2023-06-19T04:04:10;8.57;;;5.83;;
76417;SDS011;65250;47.602;19.002;2023-06-19T04:06:37;8.43;;;5.60;;
76417;SDS011;65250;47.602;19.002;2023-06-19T04:09:03;7.50;;;5.80;;
76417;SDS011;65250;47.602;19.002;2023-06-19T04:11:31;6.18;;;5.22;;
76417;SDS011;65250;47.602;19.002;2023-06-19T04:13:58;7.07;;;5.82;;
76417;SDS011;65250;47.602;19.002;2023-06-19T04:16:24;9.73;;;5.73;;
76417;SDS011;65250;47.602;19.002;2023-06-19T04:18:51;7.38;;;6.05;;
76417;SDS011;65250;47.602;19.002;2023-06-19T04:21:18;7.63;;;6.25;;
76417;SDS011;65250;47.602;19.002;2023-06-19T04:23:45;8.20;;;6.03;;
76417;SDS011;65250;47.602;19.002;2023-06-19T04:26:12;7.82;;;5.95;;
76417;SDS011;65250;47.602;19.002;2023-06-19T04:28:38;9.30;;;6.67;;
76417;SDS011;65250;47.602;19.002;2023-06-19T04:31:06;9.30;;;6.57;;
76417;SDS011;65250;47.602;19.002;2023-06-19T04:33:32;7.28;;;5.78;;
76417;SDS011;65250;47.602;19.002;2023-06-19T04:35:59;9.65;;;6.18;;
76417;SDS011;65250;47.602;19.002;2023-06-19T04:38:26;7.10;;;6.15;;
76417;SDS011;65250;47.602;19.002;2023-06-19T04:40:53;8.43;;;6.37;;
76417;SDS011;65250;47.602;19.002;2023-06-19T04:43:20;13.15;;;6.43;;
76417;SDS011;65250;47.602;19.002;2023-06-19T04:45:47;6.40;;;5.60;;
76417;SDS011;65250;47.602;19.002;2023-06-19T04:48:14;7.35;;;6.07;;
76417;SDS011;65250;47.602;19.002;2023-06-19T04:50:41;9.40;;;6.28;;
76417;SDS011;65250;47.602;19.002;2023-06-19T04:53:08;11.47;;;6.53;;
76417;SDS011;65250;47.602;19.002;2023-06-19T04:55:34;12.38;;;6.07;;
76417;SDS011;65250;47.602;19.002;2023-06-19T04:58:01;8.05;;;6.00;;
76417;SDS011;65250;47.602;19.002;2023-06-19T05:00:28;10.68;;;6.28;;
76417;SDS011;65250;47.602;19.002;2023-06-19T05:02:55;11.43;;;7.38;;
76417;SDS011;65250;47.602;19.002;2023-06-19T05:05:27;8.80;;;6.60;;
76417;SDS011;65250;47.602;19.002;2023-06-19T05:07:54;10.55;;;6.82;;
76417;SDS011;65250;47.602;19.002;2023-06-19T05:10:21;9.88;;;7.15;;
76417;SDS011;65250;47.602;19.002;2023-06-19T05:12:48;9.38;;;6.68;;
76417;SDS011;65250;47.602;19.002;2023-06-19T05:15:15;7.30;;;6.35;;
76417;SDS011;65250;47.602;19.002;2023-06-19T05:17:42;9.13;;;6.50;;
76417;SDS011;65250;47.602;19.002;2023-06-19T05:20:09;11.20;;;7.55;;
76417;SDS011;65250;47.602;19.002;2023-06-19T05:22:38;9.82;;;6.63;;
76417;SDS011;65250;47.602;19.002;2023-06-19T05:25:05;9.05;;;6.28;;
76417;SDS011;65250;47.602;19.002;2023-06-19T05:27:32;13.50;;;7.15;;
76417;SDS011;65250;47.602;19.002;2023-06-19T05:29:59;8.03;;;6.23;;
76417;SDS011;65250;47.602;19.002;2023-06-19T05:32:26;8.65;;;6.78;;
76417;SDS011;65250;47.602;19.002;2023-06-19T05:34:54;8.50;;;6.22;;
76417;SDS011;65250;47.602;19.002;2023-06-19T05:37:20;8.10;;;6.60;;
76417;SDS011;65250;47.602;19.002;2023-06-19T05:39:48;8.18;;;6.07;;
76417;SDS011;65250;47.602;19.002;2023-06-19T05:42:15;7.23;;;5.97;;
76417;SDS011;65250;47.602;19.002;2023-06-19T05:44:42;12.57;;;6.82;;
76417;SDS011;65250;47.602;19.002;2023-06-19T05:47:09;9.07;;;5.80;;
76417;SDS011;65250;47.602;19.002;2023-06-19T05:49:36;12.88;;;6.90;;
76417;SDS011;65250;47.602;19.002;2023-06-19T05:52:02;7.80;;;6.15;;
76417;SDS011;65250;47.602;19.002;2023-06-19T05:54:29;7.93;;;6.43;;
76417;SDS011;65250;47.602;19.002;2023-06-19T05:56:56;8.32;;;6.35;;
76417;SDS011;65250;47.602;19.002;2023-06-19T05:59:23;8.98;;;6.47;;
76417;SDS011;65250;47.602;19.002;2023-06-19T06:01:50;11.32;;;6.55;;
76417;SDS011;65250;47.602;19.002;2023-06-19T06:04:17;10.00;;;6.55;;
76417;SDS011;65250;47.602;19.002;2023-06-19T06:06:45;7.70;;;6.27;;
76417;SDS011;65250;47.602;19.002;2023-06-19T06:09:11;11.93;;;6.20;;
76417;SDS011;65250;47.602;19.002;2023-06-19T06:11:39;11.52;;;6.15;;
76417;SDS011;65250;47.602;19.002;2023-06-19T06:14:06;12.77;;;6.10;;
76417;SDS011;65250;47.602;19.002;2023-06-19T06:16:33;10.38;;;6.07;;
76417;SDS011;65250;47.602;19.002;2023-06-19T06:19:00;7.57;;;5.37;;
76417;SDS011;65250;47.602;19.002;2023-06-19T06:21:27;11.75;;;5.75;;
76417;SDS011;65250;47.602;19.002;2023-06-19T06:23:54;6.93;;;5.55;;
76417;SDS011;65250;47.602;19.002;2023-06-19T06:26:21;5.60;;;4.72;;
76417;SDS011;65250;47.602;19.002;2023-06-19T06:28:48;6.68;;;4.85;;
76417;SDS011;65250;47.602;19.002;2023-06-19T06:31:14;9.80;;;4.97;;
76417;SDS011;65250;47.602;19.002;2023-06-19T06:33:41;7.55;;;4.30;;
76417;SDS011;65250;47.602;19.002;2023-06-19T06:36:08;5.00;;;4.10;;
76417;SDS011;65250;47.602;19.002;2023-06-19T06:38:35;6.13;;;4.95;;
76417;SDS011;65250;47.602;19.002;2023-06-19T06:41:03;6.90;;;4.75;;
76417;SDS011;65250;47.602;19.002;2023-06-19T06:43:29;6.20;;;4.57;;
76417;SDS011;65250;47.602;19.002;2023-06-19T06:45:56;11.43;;;6.22;;
76417;SDS011;65250;47.602;19.002;2023-06-19T06:48:23;7.40;;;5.10;;
76417;SDS011;65250;47.602;19.002;2023-06-19T06:50:50;7.35;;;5.28;;
76417;SDS011;65250;47.602;19.002;2023-06-19T06:53:19;5.75;;;5.15;;
76417;SDS011;65250;47.602;19.002;2023-06-19T06:55:45;6.03;;;5.43;;
76417;SDS011;65250;47.602;19.002;2023-06-19T06:58:12;7.00;;;5.10;;
76417;SDS011;65250;47.602;19.002;2023-06-19T07:00:40;9.98;;;5.30;;
76417;SDS011;65250;47.602;19.002;2023-06-19T07:03:07;7.40;;;6.05;;
76417;SDS011;65250;47.602;19.002;2023-06-19T07:05:34;6.95;;;5.75;;
76417;SDS011;65250;47.602;19.002;2023-06-19T07:08:01;5.87;;;4.87;;
76417;SDS011;65250;47.602;19.002;2023-06-19T07:10:30;8.68;;;5.28;;
76417;SDS011;65250;47.602;19.002;2023-06-19T07:12:57;9.70;;;6.30;;
76417;SDS011;65250;47.602;19.002;2023-06-19T07:15:24;6.45;;;5.43;;
76417;SDS011;65250;47.602;19.002;2023-06-19T07:17:55;5.97;;;5.38;;
76417;SDS011;65250;47.602;19.002;2023-06-19T07:20:22;7.10;;;5.63;;
76417;SDS011;65250;47.602;19.002;2023-06-19T07:22:50;6.78;;;5.43;;
76417;SDS011;65250;47.602;19.002;2023-06-19T07:25:18;10.45;;;5.75;;
76417;SDS011;65250;47.602;19.002;2023-06-19T07:27:44;7.10;;;5.50;;
76417;SDS011;65250;47.602;19.002;2023-06-19T07:30:11;7.45;;;5.13;;
76417;SDS011;65250;47.602;19.002;2023-06-19T07:32:45;7.90;;;5.77;;
76417;SDS011;65250;47.602;19.002;2023-06-19T07:35:12;6.70;;;5.80;;
76417;SDS011;65250;47.602;19.002;2023-06-19T07:37:39;8.30;;;5.70;;
76417;SDS011;65250;47.602;19.002;2023-06-19T07:40:07;7.07;;;5.60;;
76417;SDS011;65250;47.602;19.002;2023-06-19T07:42:34;6.55;;;5.70;;
76417;SDS011;65250;47.602;19.002;2023-06-19T07:45:00;8.70;;;5.93;;
76417;SDS011;65250;47.602;19.002;2023-06-19T07:47:27;6.70;;;5.93;;
76417;SDS011;65250;47.602;19.002;2023-06-19T07:49:56;7.93;;;6.00;;
76417;SDS011;65250;47.602;19.002;2023-06-19T07:52:23;6.30;;;5.70;;
76417;SDS011;65250;47.602;19.002;2023-06-19T07:54:50;8.18;;;5.93;;
76417;SDS011;65250;47.602;19.002;2023-06-19T07:57:21;5.97;;;5.37;;
76417;SDS011;65250;47.602;19.002;2023-06-19T07:59:49;18.83;;;6.30;;
76417;SDS011;65250;47.602;19.002;2023-06-19T08:02:17;7.05;;;5.82;;
76417;SDS011;65250;47.602;19.002;2023-06-19T08:04:44;6.70;;;5.75;;
76417;SDS011;65250;47.602;19.002;2023-06-19T08:07:12;10.48;;;6.15;;
76417;SDS011;65250;47.602;19.002;2023-06-19T08:09:39;6.80;;;6.17;;
76417;SDS011;65250;47.602;19.002;2023-06-19T08:12:06;6.40;;;5.53;;
76417;SDS011;65250;47.602;19.002;2023-06-19T08:14:34;6.40;;;5.75;;
76417;SDS011;65250;47.602;19.002;2023-06-19T08:17:00;7.50;;;6.32;;
76417;SDS011;65250;47.602;19.002;2023-06-19T08:19:27;8.98;;;5.75;;
76417;SDS011;65250;47.602;19.002;2023-06-19T08:21:54;6.73;;;6.03;;
76417;SDS011;65250;47.602;19.002;2023-06-19T08:24:21;8.55;;;6.07;;
76417;SDS011;65250;47.602;19.002;2023-06-19T08:26:48;7.18;;;6.25;;
76417;SDS011;65250;47.602;19.002;2023-06-19T08:29:18;7.38;;;6.68;;
76417;SDS011;65250;47.602;19.002;2023-06-19T08:31:45;9.43;;;6.93;;
76417;SDS011;65250;47.602;19.002;2023-06-19T08:34:12;6.93;;;6.23;;
76417;SDS011;65250;47.602;19.002;2023-06-19T08:36:38;9.27;;;6.15;;
76417;SDS011;65250;47.602;19.002;2023-06-19T08:39:05;14.23;;;6.82;;
76417;SDS011;65250;47.602;19.002;2023-06-19T08:41:36;9.07;;;7.05;;
76417;SDS011;65250;47.602;19.002;2023-06-19T08:44:04;8.48;;;6.95;;
76417;SDS011;65250;47.602;19.002;2023-06-19T08:46:31;7.77;;;6.93;;
76417;SDS011;65250;47.602;19.002;2023-06-19T08:48:58;11.57;;;6.75;;
76417;SDS011;65250;47.602;19.002;2023-06-19T08:51:27;9.73;;;7.00;;
76417;SDS011;65250;47.602;19.002;2023-06-19T08:53:55;7.85;;;6.93;;
76417;SDS011;65250;47.602;19.002;2023-06-19T08:56:27;9.45;;;6.82;;
76417;SDS011;65250;47.602;19.002;2023-06-19T08:58:54;7.97;;;7.17;;
76417;SDS011;65250;47.602;19.002;2023-06-19T09:01:20;10.38;;;7.43;;
76417;SDS011;65250;47.602;19.002;2023-06-19T09:03:48;10.50;;;7.95;;
76417;SDS011;65250;47.602;19.002;2023-06-19T09:06:19;8.07;;;7.15;;
76417;SDS011;65250;47.602;19.002;2023-06-19T09:08:56;9.02;;;6.93;;
76417;SDS011;65250;47.602;19.002;2023-06-19T09:11:25;7.70;;;7.00;;
76417;SDS011;65250;47.602;19.002;2023-06-19T09:13:58;8.55;;;7.55;;
76417;SDS011;65250;47.602;19.002;2023-06-19T09:16:26;9.27;;;7.07;;
76417;SDS011;65250;47.602;19.002;2023-06-19T09:19:03;11.65;;;8.30;;
76417;SDS011;65250;47.602;19.002;2023-06-19T09:21:30;12.75;;;7.75;;
76417;SDS011;65250;47.602;19.002;2023-06-19T09:24:06;9.77;;;7.60;;
76417;SDS011;65250;47.602;19.002;2023-06-19T09:26:34;8.63;;;7.38;;
76417;SDS011;65250;47.602;19.002;2023-06-19T09:29:14;8.07;;;7.38;;
76417;SDS011;65250;47.602;19.002;2023-06-19T09:31:47;9.25;;;8.02;;
76417;SDS011;65250;47.602;19.002;2023-06-19T09:34:14;10.90;;;7.43;;
76417;SDS011;65250;47.602;19.002;2023-06-19T09:36:40;9.10;;;7.10;;
76417;SDS011;65250;47.602;19.002;2023-06-19T09:39:08;13.98;;;6.90;;
76417;SDS011;65250;47.602;19.002;2023-06-19T09:41:36;11.45;;;8.23;;
76417;SDS011;65250;47.602;19.002;2023-06-19T09:44:03;10.57;;;7.85;;
76417;SDS011;65250;47.602;19.002;2023-06-19T09:46:38;8.63;;;7.80;;
76417;SDS011;65250;47.602;19.002;2023-06-19T09:49:07;8.53;;;7.73;;
76417;SDS011;65250;47.602;19.002;2023-06-19T09:51:37;8.20;;;7.30;;
76417;SDS011;65250;47.602;19.002;2023-06-19T09:54:05;8.85;;;7.95;;
76417;SDS011;65250;47.602;19.002;2023-06-19T09:56:33;8.73;;;7.53;;
76417;SDS011;65250;47.602;19.002;2023-06-19T09:59:00;10.60;;;7.30;;
76417;SDS011;65250;47.602;19.002;2023-06-19T10:01:29;14.93;;;7.77;;
76417;SDS011;65250;47.602;19.002;2023-06-19T10:04:03;9.43;;;7.25;;
76417;SDS011;65250;47.602;19.002;2023-06-19T10:06:33;11.40;;;7.80;;
76417;SDS011;65250;47.602;19.002;2023-06-19T10:09:09;12.15;;;7.85;;
76417;SDS011;65250;47.602;19.002;2023-06-19T10:11:46;11.18;;;7.88;;
76417;SDS011;65250;47.602;19.002;2023-06-19T10:14:25;9.13;;;8.23;;
76417;SDS011;65250;47.602;19.002;2023-06-19T10:16:52;8.07;;;7.28;;
76417;SDS011;65250;47.602;19.002;2023-06-19T10:19:21;8.30;;;7.60;;
76417;SDS011;65250;47.602;19.002;2023-06-19T10:21:48;9.40;;;7.82;;
76417;SDS011;65250;47.602;19.002;2023-06-19T10:24:19;15.20;;;6.82;;
76417;SDS011;65250;47.602;19.002;2023-06-19T10:26:57;8.47;;;7.67;;
76417;SDS011;65250;47.602;19.002;2023-06-19T10:29:25;9.73;;;7.60;;
76417;SDS011;65250;47.602;19.002;2023-06-19T10:31:54;9.80;;;7.35;;
76417;SDS011;65250;47.602;19.002;2023-06-19T10:34:21;8.20;;;7.40;;
76417;SDS011;65250;47.602;19.002;2023-06-19T10:36:47;7.30;;;6.70;;
76417;SDS011;65250;47.602;19.002;2023-06-19T10:39:14;7.30;;;6.57;;
76417;SDS011;65250;47.602;19.002;2023-06-19T10:41:42;8.00;;;7.30;;
76417;SDS011;65250;47.602;19.002;2023-06-19T10:44:09;7.85;;;7.05;;
76417;SDS011;65250;47.602;19.002;2023-06-19T10:46:39;7.85;;;6.88;;
76417;SDS011;65250;47.602;19.002;2023-06-19T10:49:07;9.55;;;7.95;;
76417;SDS011;65250;47.602;19.002;2023-06-19T10:51:37;7.77;;;6.97;;
76417;SDS011;65250;47.602;19.002;2023-06-19T10:54:04;8.52;;;7.70;;
76417;SDS011;65250;47.602;19.002;2023-06-19T10:56:31;8.30;;;7.53;;
76417;SDS011;65250;47.602;19.002;2023-06-19T10:59:02;8.40;;;7.53;;
76417;SDS011;65250;47.602;19.002;2023-06-19T11:01:33;9.40;;;8.40;;
76417;SDS011;65250;47.602;19.002;2023-06-19T11:04:02;11.67;;;8.07;;
76417;SDS011;65250;47.602;19.002;2023-06-19T11:06:30;15.63;;;8.10;;
76417;SDS011;65250;47.602;19.002;2023-06-19T11:08:57;9.23;;;8.30;;
76417;SDS011;65250;47.602;19.002;2023-06-19T11:11:39;8.95;;;7.97;;
76417;SDS011;65250;47.602;19.002;2023-06-19T11:14:07;9.40;;;8.55;;
76417;SDS011;65250;47.602;19.002;2023-06-19T11:16:35;9.73;;;8.70;;
76417;SDS011;65250;47.602;19.002;2023-06-19T11:19:06;9.75;;;8.85;;
76417;SDS011;65250;47.602;19.002;2023-06-19T11:21:35;10.30;;;9.38;;
76417;SDS011;65250;47.602;19.002;2023-06-19T11:24:10;9.57;;;8.88;;
76417;SDS011;65250;47.602;19.002;2023-06-19T11:26:38;9.27;;;7.90;;
76417;SDS011;65250;47.602;19.002;2023-06-19T11:31:45;9.93;;;9.23;;
76417;SDS011;65250;47.602;19.002;2023-06-19T11:34:14;10.73;;;9.70;;
76417;SDS011;65250;47.602;19.002;2023-06-19T11:36:41;10.15;;;9.35;;
76417;SDS011;65250;47.602;19.002;2023-06-19T11:39:15;10.98;;;9.95;;
76417;SDS011;65250;47.602;19.002;2023-06-19T11:41:45;10.67;;;9.80;;
76417;SDS011;65250;47.602;19.002;2023-06-19T11:44:12;9.93;;;9.23;;
76417;SDS011;65250;47.602;19.002;2023-06-19T11:46:39;10.85;;;10.05;;
76417;SDS011;65250;47.602;19.002;2023-06-19T11:49:12;10.25;;;9.52;;
76417;SDS011;65250;47.602;19.002;2023-06-19T11:51:40;11.30;;;10.50;;
76417;SDS011;65250;47.602;19.002;2023-06-19T11:54:08;11.43;;;10.53;;
76417;SDS011;65250;47.602;19.002;2023-06-19T11:56:35;11.55;;;10.55;;
76417;SDS011;65250;47.602;19.002;2023-06-19T11:59:03;11.18;;;10.27;;
76417;SDS011;65250;47.602;19.002;2023-06-19T12:01:33;12.13;;;11.15;;
76417;SDS011;65250;47.602;19.002;2023-06-19T12:04:01;12.13;;;11.23;;
76417;SDS011;65250;47.602;19.002;2023-06-19T12:06:29;12.77;;;11.97;;
76417;SDS011;65250;47.602;19.002;2023-06-19T12:08:56;13.40;;;12.32;;
76417;SDS011;65250;47.602;19.002;2023-06-19T12:11:23;13.77;;;12.48;;
76417;SDS011;65250;47.602;19.002;2023-06-19T12:13:51;14.15;;;13.10;;
76417;SDS011;65250;47.602;19.002;2023-06-19T12:16:19;13.40;;;12.60;;
76417;SDS011;65250;47.602;19.002;2023-06-19T12:18:47;15.02;;;14.05;;
76417;SDS011;65250;47.602;19.002;2023-06-19T12:21:14;14.05;;;13.15;;
76417;SDS011;65250;47.602;19.002;2023-06-19T12:24:00;15.35;;;13.88;;
76417;SDS011;65250;47.602;19.002;2023-06-19T12:26:26;15.07;;;13.80;;
76417;SDS011;65250;47.602;19.002;2023-06-19T12:28:53;15.60;;;14.60;;
76417;SDS011;65250;47.602;19.002;2023-06-19T12:31:20;14.77;;;13.68;;
76417;SDS011;65250;47.602;19.002;2023-06-19T12:33:47;21.00;;;15.07;;
76417;SDS011;65250;47.602;19.002;2023-06-19T12:36:15;15.18;;;14.07;;
76417;SDS011;65250;47.602;19.002;2023-06-19T12:38:42;19.15;;;13.65;;
76417;SDS011;65250;47.602;19.002;2023-06-19T12:41:09;15.50;;;14.40;;
76417;SDS011;65250;47.602;19.002;2023-06-19T12:43:36;16.08;;;14.55;;
76417;SDS011;65250;47.602;19.002;2023-06-19T12:46:03;16.65;;;15.15;;
76417;SDS011;65250;47.602;19.002;2023-06-19T12:48:30;15.43;;;14.52;;
76417;SDS011;65250;47.602;19.002;2023-06-19T12:50:56;15.52;;;14.27;;
76417;SDS011;65250;47.602;19.002;2023-06-19T12:53:23;15.77;;;14.68;;
76417;SDS011;65250;47.602;19.002;2023-06-19T12:55:53;16.13;;;14.80;;
76417;SDS011;65250;47.602;19.002;2023-06-19T12:58:29;16.25;;;15.15;;
76417;SDS011;65250;47.602;19.002;2023-06-19T13:00:56;15.40;;;14.50;;
76417;SDS011;65250;47.602;19.002;2023-06-19T13:03:23;15.45;;;14.27;;
76417;SDS011;65250;47.602;19.002;2023-06-19T13:05:50;16.80;;;15.77;;
76417;SDS011;65250;47.602;19.002;2023-06-19T13:08:17;17.08;;;15.88;;
76417;SDS011;65250;47.602;19.002;2023-06-19T13:10:44;17.83;;;16.50;;
76417;SDS011;65250;47.602;19.002;2023-06-19T13:13:11;17.92;;;16.70;;
76417;SDS011;65250;47.602;19.002;2023-06-19T13:15:38;16.98;;;15.77;;
76417;SDS011;65250;47.602;19.002;2023-06-19T13:18:05;18.63;;;17.55;;
76417;SDS011;65250;47.602;19.002;2023-06-19T13:20:32;17.60;;;16.52;;
76417;SDS011;65250;47.602;19.002;2023-06-19T13:22:59;18.63;;;17.52;;
76417;SDS011;65250;47.602;19.002;2023-06-19T13:25:26;19.23;;;18.02;;
76417;SDS011;65250;47.602;19.002;2023-06-19T13:27:52;19.20;;;17.90;;
76417;SDS011;65250;47.602;19.002;2023-06-19T13:30:19;17.95;;;16.63;;
76417;SDS011;65250;47.602;19.002;2023-06-19T13:32:46;18.20;;;16.98;;
76417;SDS011;65250;47.602;19.002;2023-06-19T13:35:13;18.10;;;16.73;;
76417;SDS011;65250;47.602;19.002;2023-06-19T13:37:40;18.00;;;16.88;;
76417;SDS011;65250;47.602;19.002;2023-06-19T13:40:07;19.42;;;18.25;;
76417;SDS011;65250;47.602;19.002;2023-06-19T13:42:35;18.73;;;17.50;;
76417;SDS011;65250;47.602;19.002;2023-06-19T13:45:02;18.15;;;17.13;;
76417;SDS011;65250;47.602;19.002;2023-06-19T13:47:29;19.45;;;18.33;;
76417;SDS011;65250;47.602;19.002;2023-06-19T13:49:56;18.90;;;17.80;;
76417;SDS011;65250;47.602;19.002;2023-06-19T13:52:23;19.20;;;18.00;;
76417;SDS011;65250;47.602;19.002;2023-06-19T13:54:50;19.73;;;18.52;;
76417;SDS011;65250;47.602;19.002;2023-06-19T13:57:20;20.15;;;18.95;;
76417;SDS011;65250;47.602;19.002;2023-06-19T13:59:47;21.23;;;19.88;;
76417;SDS011;65250;47.602;19.002;2023-06-19T14:02:15;20.60;;;19.20;;
76417;SDS011;65250;47.602;19.002;2023-06-19T14:04:43;20.85;;;19.45;;
76417;SDS011;65250;47.602;19.002;2023-06-19T14:07:10;21.53;;;20.30;;
76417;SDS011;65250;47.602;19.002;2023-06-19T14:09:37;20.10;;;18.88;;
76417;SDS011;65250;47.602;19.002;2023-06-19T14:12:04;22.08;;;20.77;;
76417;SDS011;65250;47.602;19.002;2023-06-19T14:14:31;22.58;;;21.17;;
76417;SDS011;65250;47.602;19.002;2023-06-19T14:16:58;21.70;;;20.10;;
76417;SDS011;65250;47.602;19.002;2023-06-19T14:19:25;21.37;;;20.17;;
76417;SDS011;65250;47.602;19.002;2023-06-19T14:21:52;21.05;;;19.95;;
76417;SDS011;65250;47.602;19.002;2023-06-19T14:24:19;22.02;;;20.60;;
76417;SDS011;65250;47.602;19.002;2023-06-19T14:26:46;22.98;;;21.27;;
76417;SDS011;65250;47.602;19.002;2023-06-19T14:29:13;21.38;;;19.95;;
76417;SDS011;65250;47.602;19.002;2023-06-19T14:31:41;20.00;;;18.80;;
76417;SDS011;65250;47.602;19.002;2023-06-19T14:34:08;18.50;;;17.20;;
76417;SDS011;65250;47.602;19.002;2023-06-19T14:36:36;19.58;;;18.38;;